Time;durP1;ratioP1;P1;durP2;ratioP2;P2;SDS_P1;SDS_P2;PMS_P1;PMS_P2;Temp;Humidity;BMP_temperature;BMP_pressure;BME280_temperature;BME280_humidity;BME280_pressure;Samples;Min_cycle;Max_cycle;Signal;HPM_P1;HPM_P2
2021/11/27 00:01:29;;;;;;;53.80;26.30;;;8.30;99.90;;;;;;6238556;23;20051;-75
2021/11/27 00:03:55;;;;;;;53.53;26.10;;;8.40;99.90;;;;;;6240038;22;20022;-76
2021/11/27 00:06:22;;;;;;;49.15;25.92;;;8.40;99.90;;;;;;6237116;23;20462;-75
2021/11/27 00:08:48;;;;;;;51.17;25.15;;;8.40;99.90;;;;;;6238905;22;20075;-76
2021/11/27 00:11:14;;;;;;;51.40;26.65;;;8.30;99.90;;;;;;6238299;23;20078;-75
2021/11/27 00:13:40;;;;;;;49.05;27.17;;;8.30;99.90;;;;;;6237338;23;20004;-75
2021/11/27 00:16:06;;;;;;;51.35;26.75;;;8.30;99.90;;;;;;6239409;22;20004;-76
2021/11/27 00:18:32;;;;;;;54.53;24.75;;;8.30;99.90;;;;;;6238796;23;20095;-75
2021/11/27 00:21:06;;;;;;;50.47;25.15;;;8.40;99.90;;;;;;6237051;23;20000;-75
2021/11/27 00:23:34;;;;;;;47.90;26.75;;;8.40;99.90;;;;;;6237028;23;20449;-76
2021/11/27 00:26:01;;;;;;;53.17;27.10;;;8.40;99.90;;;;;;6239782;22;19992;-76
2021/11/27 00:28:28;;;;;;;46.75;25.42;;;8.40;99.90;;;;;;6238786;22;20061;-76
2021/11/27 00:30:58;;;;;;;47.97;25.83;;;8.40;99.90;;;;;;6237334;23;20008;-76
2021/11/27 00:33:24;;;;;;;53.85;26.80;;;8.50;99.90;;;;;;6239526;22;20008;-77
2021/11/27 00:35:49;;;;;;;53.50;27.23;;;8.50;99.90;;;;;;6238875;22;20004;-75
2021/11/27 00:38:16;;;;;;;51.03;26.08;;;8.50;99.90;;;;;;6237397;23;20008;-76
2021/11/27 00:40:43;;;;;;;45.20;24.73;;;8.50;99.90;;;;;;6237135;23;20000;-76
2021/11/27 00:43:10;;;;;;;43.75;24.25;;;8.40;99.90;;;;;;6236159;23;20474;-75
2021/11/27 00:45:37;;;;;;;43.88;22.40;;;8.40;99.90;;;;;;6237609;23;20432;-75
2021/11/27 00:48:05;;;;;;;47.38;23.55;;;8.40;99.90;;;;;;6239149;22;20134;-75
2021/11/27 00:50:36;;;;;;;48.95;24.15;;;8.40;99.90;;;;;;6238487;22;20055;-76
2021/11/27 00:53:05;;;;;;;39.58;21.77;;;8.40;99.90;;;;;;6239918;22;19996;-76
2021/11/27 00:55:32;;;;;;;38.70;21.35;;;8.40;99.90;;;;;;6241319;23;20007;-76
2021/11/27 00:57:58;;;;;;;47.20;25.10;;;8.30;99.90;;;;;;6240210;23;20008;-75
2021/11/27 01:00:30;;;;;;;46.67;22.10;;;8.30;99.90;;;;;;6240644;23;20008;-75
2021/11/27 01:02:58;;;;;;;44.30;22.92;;;8.30;99.90;;;;;;6243258;22;20000;-76
2021/11/27 01:05:24;;;;;;;47.30;22.75;;;8.30;99.90;;;;;;6240713;23;20007;-76
2021/11/27 01:07:51;;;;;;;40.85;21.50;;;8.30;99.90;;;;;;6242833;23;20004;-77
2021/11/27 01:10:25;;;;;;;41.50;20.40;;;8.40;99.90;;;;;;6245146;22;20031;-76
2021/11/27 01:12:52;;;;;;;36.38;18.38;;;8.40;99.90;;;;;;6245798;22;20007;-76
2021/11/27 01:15:21;;;;;;;35.45;19.17;;;8.40;99.90;;;;;;6245913;22;20011;-76
2021/11/27 01:17:48;;;;;;;31.55;16.60;;;8.40;99.90;;;;;;6245608;22;20413;-76
2021/11/27 01:20:17;;;;;;;31.45;15.98;;;8.40;99.90;;;;;;6244064;23;20015;-76
2021/11/27 01:22:43;;;;;;;25.92;14.70;;;8.40;99.90;;;;;;6245379;22;20039;-77
2021/11/27 01:25:10;;;;;;;24.67;14.60;;;8.40;99.90;;;;;;6245215;22;19997;-76
2021/11/27 01:27:36;;;;;;;25.65;13.32;;;8.40;99.90;;;;;;6244400;22;20075;-75
2021/11/27 01:30:05;;;;;;;19.88;11.88;;;8.40;99.90;;;;;;6243110;23;20032;-76
2021/11/27 01:32:31;;;;;;;24.60;13.82;;;8.50;99.90;;;;;;6243453;23;20008;-77
2021/11/27 01:34:56;;;;;;;27.40;14.30;;;8.50;99.90;;;;;;6245614;22;20054;-79
2021/11/27 01:37:22;;;;;;;24.02;13.20;;;8.50;99.90;;;;;;6242350;23;20087;-79
2021/11/27 01:39:48;;;;;;;27.45;13.93;;;8.50;99.90;;;;;;6241046;23;20327;-79
2021/11/27 01:42:14;;;;;;;23.55;13.85;;;8.50;99.90;;;;;;6241200;23;20003;-79
2021/11/27 01:44:40;;;;;;;24.02;14.13;;;8.50;99.90;;;;;;6242856;22;20004;-79
2021/11/27 01:47:07;;;;;;;21.15;11.77;;;8.50;99.90;;;;;;6240974;23;20087;-79
2021/11/27 01:49:32;;;;;;;21.27;12.68;;;8.50;99.90;;;;;;6244028;22;20000;-79
2021/11/27 01:51:59;;;;;;;17.85;10.75;;;8.50;99.90;;;;;;6245408;23;20011;-79
2021/11/27 01:54:25;;;;;;;17.05;10.50;;;8.50;99.90;;;;;;6243528;23;20327;-79
2021/11/27 01:56:58;;;;;;;19.00;10.32;;;8.50;99.90;;;;;;6245044;22;20335;-79
2021/11/27 01:59:26;;;;;;;17.65;10.00;;;8.50;99.90;;;;;;6246058;22;20007;-79
2021/11/27 02:01:53;;;;;;;17.83;10.75;;;8.60;99.90;;;;;;6245851;22;19996;-79
2021/11/27 02:04:19;;;;;;;18.02;10.75;;;8.60;99.90;;;;;;6244260;23;20012;-79
2021/11/27 02:06:45;;;;;;;16.77;9.80;;;8.60;99.90;;;;;;6244275;23;20000;-79
2021/11/27 02:09:18;;;;;;;14.60;9.02;;;8.60;99.90;;;;;;6244401;23;20008;-79
2021/11/27 02:11:48;;;;;;;17.30;9.80;;;8.60;99.90;;;;;;6245966;22;20270;-79
2021/11/27 02:14:14;;;;;;;14.27;9.15;;;8.60;99.90;;;;;;6244206;23;20008;-79
2021/11/27 02:16:41;;;;;;;13.77;8.38;;;8.60;99.90;;;;;;6244311;23;20496;-79
2021/11/27 02:19:08;;;;;;;13.52;9.27;;;8.60;99.90;;;;;;6243855;23;20411;-79
2021/11/27 02:21:34;;;;;;;13.07;8.60;;;8.60;99.90;;;;;;6245849;22;19996;-79
2021/11/27 02:24:01;;;;;;;13.32;8.63;;;8.70;99.90;;;;;;6244141;23;20000;-79
2021/11/27 02:26:31;;;;;;;13.02;7.97;;;8.70;99.90;;;;;;6245767;22;19995;-79
2021/11/27 02:29:02;;;;;;;13.10;7.65;;;8.70;99.90;;;;;;6244020;23;20066;-79
2021/11/27 02:31:29;;;;;;;13.20;7.60;;;8.70;99.90;;;;;;6245771;22;20000;-79
2021/11/27 02:33:55;;;;;;;15.60;8.05;;;8.70;99.90;;;;;;6245466;22;20335;-79
2021/11/27 02:36:22;;;;;;;13.68;8.18;;;8.70;99.90;;;;;;6244088;23;20040;-79
2021/11/27 02:38:48;;;;;;;16.55;8.50;;;8.70;99.90;;;;;;6243898;23;20010;-79
2021/11/27 02:41:14;;;;;;;12.77;8.60;;;8.70;99.90;;;;;;6245536;23;20451;-79
2021/11/27 02:43:40;;;;;;;12.52;8.55;;;8.70;99.90;;;;;;6245637;22;20336;-79
2021/11/27 02:46:06;;;;;;;13.93;7.47;;;8.70;99.90;;;;;;6243907;23;20028;-79
2021/11/27 02:48:31;;;;;;;16.30;7.88;;;8.70;99.90;;;;;;6243259;23;20317;-80
2021/11/27 02:50:58;;;;;;;16.30;8.50;;;8.70;99.90;;;;;;6245542;23;20008;-79
2021/11/27 02:53:23;;;;;;;12.00;7.95;;;8.60;99.90;;;;;;6245380;22;20000;-80
2021/11/27 02:55:49;;;;;;;13.93;7.75;;;8.70;99.90;;;;;;6245633;22;20070;-79
2021/11/27 02:58:15;;;;;;;13.05;7.97;;;8.70;99.90;;;;;;6245237;22;20436;-80
2021/11/27 03:00:43;;;;;;;12.85;7.80;;;8.70;99.90;;;;;;6245543;22;20000;-79
2021/11/27 03:03:08;;;;;;;12.07;7.53;;;8.70;99.90;;;;;;6243372;23;20000;-79
2021/11/27 03:05:34;;;;;;;11.35;7.18;;;8.70;99.90;;;;;;6243503;23;20015;-79
2021/11/27 03:08:00;;;;;;;11.38;7.63;;;8.70;99.90;;;;;;6245351;22;20047;-79
2021/11/27 03:10:26;;;;;;;11.85;8.48;;;8.70;99.90;;;;;;6243503;23;20008;-80
2021/11/27 03:12:52;;;;;;;14.85;8.77;;;8.70;99.90;;;;;;6245372;22;20010;-80
2021/11/27 03:15:19;;;;;;;11.23;7.68;;;8.60;99.90;;;;;;6245086;22;20000;-79
2021/11/27 03:17:47;;;;;;;12.00;7.72;;;8.60;99.90;;;;;;6243409;23;20142;-80
2021/11/27 03:20:16;;;;;;;14.75;9.32;;;8.60;99.90;;;;;;6243278;23;20012;-80
2021/11/27 03:22:42;;;;;;;19.05;10.65;;;8.50;99.90;;;;;;6245161;22;20007;-79
2021/11/27 03:25:10;;;;;;;34.78;16.45;;;8.60;99.90;;;;;;6243287;23;20009;-80
2021/11/27 03:27:37;;;;;;;35.10;17.65;;;8.50;99.90;;;;;;6243378;23;20012;-80
2021/11/27 03:30:07;;;;;;;37.88;18.10;;;8.60;99.90;;;;;;6245039;22;20247;-80
2021/11/27 03:32:32;;;;;;;37.22;18.95;;;8.60;99.90;;;;;;6244912;22;20004;-80
2021/11/27 03:34:58;;;;;;;38.63;19.23;;;8.60;99.90;;;;;;6244852;22;20455;-80
2021/11/27 03:37:24;;;;;;;42.10;19.50;;;8.60;99.90;;;;;;6243334;23;20083;-80
2021/11/27 03:39:50;;;;;;;43.05;19.50;;;8.60;99.90;;;;;;6244638;23;20011;-80
2021/11/27 03:42:17;;;;;;;44.75;21.08;;;8.50;99.90;;;;;;6244971;22;20050;-80
2021/11/27 03:44:46;;;;;;;38.60;20.55;;;8.60;99.90;;;;;;6244800;22;20424;-80
2021/11/27 03:47:12;;;;;;;38.78;20.30;;;8.60;99.90;;;;;;6243166;23;20058;-80
2021/11/27 03:49:38;;;;;;;46.33;21.23;;;8.50;99.90;;;;;;6244292;22;20066;-80
2021/11/27 03:52:05;;;;;;;38.42;19.58;;;8.50;99.90;;;;;;6244847;22;20400;-80
2021/11/27 03:54:31;;;;;;;47.83;22.00;;;8.50;99.90;;;;;;6244539;23;20008;-80
2021/11/27 03:56:57;;;;;;;42.90;20.50;;;8.50;99.90;;;;;;6244670;22;20004;-80
2021/11/27 03:59:23;;;;;;;43.20;21.17;;;8.50;99.90;;;;;;6244412;23;20004;-80
2021/11/27 04:01:50;;;;;;;42.42;22.67;;;8.50;99.90;;;;;;6244716;22;20020;-80
2021/11/27 04:04:17;;;;;;;45.70;21.70;;;8.50;99.90;;;;;;6244581;22;20007;-80
2021/11/27 04:06:43;;;;;;;45.60;23.45;;;8.50;99.90;;;;;;6244678;22;20494;-80
2021/11/27 04:09:10;;;;;;;47.33;23.88;;;8.40;99.90;;;;;;6243022;23;20008;-80
2021/11/27 04:11:37;;;;;;;48.67;24.92;;;8.40;99.90;;;;;;6243040;23;20011;-80
2021/11/27 04:14:04;;;;;;;50.92;25.05;;;8.40;99.90;;;;;;6244346;22;20428;-80
2021/11/27 04:16:30;;;;;;;55.30;26.73;;;8.40;99.90;;;;;;6242946;23;20028;-80
2021/11/27 04:18:56;;;;;;;54.53;24.80;;;8.40;99.90;;;;;;6244212;22;20440;-79
2021/11/27 04:21:22;;;;;;;49.22;24.50;;;8.40;99.90;;;;;;6244260;23;20027;-80
2021/11/27 04:23:50;;;;;;;48.03;23.88;;;8.40;99.90;;;;;;6268334;22;20050;-79
2021/11/27 04:26:16;;;;;;;45.65;21.48;;;8.40;99.90;;;;;;6242792;23;19996;-79
2021/11/27 04:28:43;;;;;;;34.85;19.52;;;8.40;99.90;;;;;;6244422;22;20082;-80
2021/11/27 04:31:09;;;;;;;31.63;17.08;;;8.40;99.90;;;;;;6242881;23;20288;-80
2021/11/27 04:33:36;;;;;;;30.05;17.30;;;8.40;99.90;;;;;;6244476;22;20004;-79
2021/11/27 04:36:02;;;;;;;38.08;17.90;;;8.40;99.90;;;;;;6244309;22;20004;-79
2021/11/27 04:38:28;;;;;;;27.42;14.35;;;8.40;99.90;;;;;;6245230;22;20019;-76
2021/11/27 04:40:54;;;;;;;27.77;14.90;;;8.40;99.90;;;;;;6245683;22;20024;-79
2021/11/27 04:43:20;;;;;;;31.45;15.98;;;8.40;99.90;;;;;;6243106;23;20080;-80
2021/11/27 04:45:46;;;;;;;27.15;14.98;;;8.30;99.90;;;;;;6245962;22;20011;-80
2021/11/27 04:48:13;;;;;;;28.85;14.93;;;8.30;99.90;;;;;;6244413;23;20399;-80
2021/11/27 04:50:39;;;;;;;27.05;14.63;;;8.40;99.90;;;;;;6245208;23;20034;-79
2021/11/27 04:53:05;;;;;;;30.00;13.27;;;8.30;99.90;;;;;;6244121;22;20003;-80
2021/11/27 04:55:33;;;;;;;20.40;10.40;;;8.30;99.90;;;;;;6244309;22;20000;-80
2021/11/27 04:57:59;;;;;;;19.55;10.88;;;8.30;99.90;;;;;;6244216;22;20054;-79
2021/11/27 05:00:37;;;;;;;18.35;11.25;;;8.30;99.90;;;;;;6242499;23;20036;-79
2021/11/27 05:03:03;;;;;;;14.15;9.32;;;8.30;99.90;;;;;;6243982;22;20004;-80
2021/11/27 05:05:29;;;;;;;15.80;9.48;;;8.30;99.90;;;;;;6244138;22;19996;-80
2021/11/27 05:07:56;;;;;;;16.30;9.23;;;8.30;99.90;;;;;;6242388;23;20004;-80
2021/11/27 05:10:22;;;;;;;14.13;8.70;;;8.20;99.90;;;;;;6244185;22;20000;-79
2021/11/27 05:12:48;;;;;;;19.15;10.20;;;8.20;99.90;;;;;;6242360;23;20015;-80
2021/11/27 05:15:14;;;;;;;17.42;10.63;;;8.20;99.90;;;;;;6242524;23;20008;-80
2021/11/27 05:17:40;;;;;;;15.25;9.70;;;8.20;99.90;;;;;;6242241;23;20403;-79
2021/11/27 05:20:07;;;;;;;14.63;9.55;;;8.10;99.90;;;;;;6243609;23;20039;-79
2021/11/27 05:22:33;;;;;;;14.98;8.35;;;8.00;99.90;;;;;;6244024;22;19996;-80
2021/11/27 05:24:59;;;;;;;16.33;8.80;;;8.10;99.90;;;;;;6242143;23;20061;-80
2021/11/27 05:27:26;;;;;;;14.02;8.85;;;8.10;99.90;;;;;;6243979;22;20000;-80
2021/11/27 05:29:52;;;;;;;14.48;9.60;;;8.10;99.90;;;;;;6242382;23;20308;-80
2021/11/27 05:32:26;;;;;;;12.98;8.10;;;8.10;99.90;;;;;;6244043;23;20031;-80
2021/11/27 05:34:54;;;;;;;13.77;8.52;;;8.10;99.90;;;;;;6242444;23;20008;-79
2021/11/27 05:37:20;;;;;;;14.30;8.40;;;8.10;99.90;;;;;;6243792;22;20368;-80
2021/11/27 05:39:48;;;;;;;12.48;7.63;;;8.10;99.90;;;;;;6243972;22;20011;-80
2021/11/27 05:42:15;;;;;;;12.00;7.43;;;8.20;99.90;;;;;;6243890;22;20440;-80
2021/11/27 05:44:43;;;;;;;13.32;6.82;;;8.20;99.90;;;;;;6243784;22;20032;-80
2021/11/27 05:47:09;;;;;;;14.98;8.48;;;8.20;99.90;;;;;;6242051;23;20004;-80
2021/11/27 05:49:35;;;;;;;15.15;8.43;;;8.10;99.90;;;;;;6244067;23;20340;-80
2021/11/27 05:52:01;;;;;;;13.38;8.13;;;8.20;99.90;;;;;;6242173;23;20004;-80
2021/11/27 05:54:27;;;;;;;13.68;8.18;;;8.10;99.90;;;;;;6244845;22;20101;-80
2021/11/27 05:56:52;;;;;;;14.32;8.45;;;8.10;99.90;;;;;;6243712;23;20004;-80
2021/11/27 05:59:18;;;;;;;11.80;8.50;;;8.10;99.90;;;;;;6245264;23;20007;-80
2021/11/27 06:01:44;;;;;;;11.88;7.22;;;8.10;99.90;;;;;;6243909;23;20004;-80
2021/11/27 06:04:09;;;;;;;11.05;7.68;;;8.10;99.90;;;;;;6245314;22;19996;-80
2021/11/27 06:06:35;;;;;;;12.27;7.95;;;8.10;99.90;;;;;;6243719;23;20432;-79
2021/11/27 06:09:02;;;;;;;12.68;7.75;;;8.20;99.90;;;;;;6242550;23;20435;-80
2021/11/27 06:11:28;;;;;;;13.55;7.63;;;8.20;99.90;;;;;;6244389;22;20032;-80
2021/11/27 06:13:54;;;;;;;14.88;7.90;;;8.20;99.90;;;;;;6242403;23;20004;-79
2021/11/27 06:16:20;;;;;;;11.43;7.18;;;8.20;99.90;;;;;;6243885;22;20004;-80
2021/11/27 06:18:46;;;;;;;14.82;8.95;;;8.20;99.90;;;;;;6243812;22;20012;-80
2021/11/27 06:21:12;;;;;;;12.55;8.18;;;8.10;99.90;;;;;;6242180;23;20011;-80
2021/11/27 06:23:37;;;;;;;13.05;8.88;;;8.10;99.90;;;;;;6244050;22;20004;-79
2021/11/27 06:26:03;;;;;;;15.65;8.20;;;8.10;99.90;;;;;;6243821;22;20331;-80
2021/11/27 06:28:31;;;;;;;12.40;7.70;;;8.10;99.90;;;;;;6243965;22;19996;-79
2021/11/27 06:30:56;;;;;;;13.20;8.70;;;8.10;99.90;;;;;;6243788;22;20003;-80
2021/11/27 06:33:22;;;;;;;15.43;8.50;;;8.10;99.90;;;;;;6242448;23;20000;-79
2021/11/27 06:35:48;;;;;;;12.95;8.40;;;8.10;99.90;;;;;;6243884;22;20003;-79
2021/11/27 06:38:14;;;;;;;13.00;8.80;;;8.10;99.90;;;;;;6244322;22;19996;-80
2021/11/27 06:40:40;;;;;;;13.82;7.93;;;8.10;99.90;;;;;;6245762;22;20000;-80
2021/11/27 06:43:06;;;;;;;13.15;8.20;;;8.10;99.90;;;;;;6243855;23;20004;-80
2021/11/27 06:45:32;;;;;;;13.80;7.72;;;8.10;99.90;;;;;;6245650;22;20024;-79
2021/11/27 06:47:58;;;;;;;13.65;7.90;;;8.20;99.90;;;;;;6243805;23;20011;-79
2021/11/27 06:50:24;;;;;;;14.13;8.43;;;8.20;99.90;;;;;;6243947;23;20336;-80
2021/11/27 06:52:51;;;;;;;16.58;8.50;;;8.20;99.90;;;;;;6245453;22;20000;-80
2021/11/27 06:55:17;;;;;;;14.77;7.78;;;8.20;99.90;;;;;;6245421;22;20004;-80
2021/11/27 06:57:43;;;;;;;13.13;7.75;;;8.20;99.90;;;;;;6245375;22;20000;-80
2021/11/27 07:00:10;;;;;;;16.17;8.63;;;8.10;99.90;;;;;;6245263;23;20682;-80
2021/11/27 07:02:36;;;;;;;15.30;8.52;;;8.20;99.90;;;;;;6243666;23;20000;-79
2021/11/27 07:05:03;;;;;;;14.43;8.65;;;8.20;99.90;;;;;;6243854;23;20031;-79
2021/11/27 07:07:29;;;;;;;14.13;7.90;;;8.10;99.90;;;;;;6245211;22;20071;-79
2021/11/27 07:09:55;;;;;;;19.63;8.40;;;8.20;99.90;;;;;;6243543;23;20380;-79
2021/11/27 07:12:20;;;;;;;15.00;9.18;;;8.20;99.90;;;;;;6243598;23;20015;-79
2021/11/27 07:14:47;;;;;;;15.63;8.55;;;8.20;99.90;;;;;;6243576;23;19996;-79
2021/11/27 07:17:13;;;;;;;18.23;8.15;;;8.20;99.90;;;;;;6243428;23;20011;-79
2021/11/27 07:19:39;;;;;;;14.52;8.13;;;8.30;99.90;;;;;;6245253;22;20004;-79
2021/11/27 07:22:05;;;;;;;13.95;7.55;;;8.30;99.90;;;;;;6243813;23;20003;-79
2021/11/27 07:24:31;;;;;;;14.27;7.75;;;8.30;99.90;;;;;;6245156;22;20427;-80
2021/11/27 07:26:59;;;;;;;22.58;9.20;;;8.30;99.90;;;;;;6245216;22;20076;-79
2021/11/27 07:29:25;;;;;;;14.00;9.07;;;8.30;99.90;;;;;;6243553;23;20004;-79
2021/11/27 07:31:51;;;;;;;15.05;8.82;;;8.40;99.90;;;;;;6245227;22;20007;-80
2021/11/27 07:34:17;;;;;;;17.38;7.78;;;8.40;99.90;;;;;;6243510;23;20016;-79
2021/11/27 07:36:43;;;;;;;16.33;7.57;;;8.40;99.90;;;;;;6245241;23;20000;-80
2021/11/27 07:39:09;;;;;;;12.68;7.10;;;8.50;99.90;;;;;;6243538;23;20004;-80
2021/11/27 07:41:36;;;;;;;17.80;8.68;;;8.50;99.90;;;;;;6243523;23;20004;-79
2021/11/27 07:44:02;;;;;;;13.88;7.97;;;8.50;99.90;;;;;;6243980;22;20096;-79
2021/11/27 07:46:31;;;;;;;16.90;9.25;;;8.50;99.90;;;;;;6244955;22;20305;-79
2021/11/27 07:48:57;;;;;;;15.57;8.32;;;8.50;99.90;;;;;;6242994;23;20015;-80
2021/11/27 07:51:22;;;;;;;14.32;8.02;;;8.60;99.90;;;;;;6246089;22;20332;-80
2021/11/27 07:53:48;;;;;;;14.73;8.23;;;8.60;99.90;;;;;;6244820;23;20050;-80
2021/11/27 07:56:14;;;;;;;13.23;8.07;;;8.60;99.90;;;;;;6245285;22;20007;-80
2021/11/27 07:58:43;;;;;;;19.40;7.53;;;8.60;99.90;;;;;;6243877;23;20096;-79
2021/11/27 08:01:12;;;;;;;16.58;7.75;;;8.70;99.90;;;;;;6244676;23;20007;-80
2021/11/27 08:03:38;;;;;;;14.25;7.75;;;8.70;99.90;;;;;;6243790;23;20091;-80
2021/11/27 08:06:04;;;;;;;14.02;8.40;;;8.70;99.90;;;;;;6244530;23;20032;-80
2021/11/27 08:08:29;;;;;;;18.27;9.55;;;8.60;99.90;;;;;;6243773;23;20097;-80
2021/11/27 08:10:55;;;;;;;15.60;8.68;;;8.70;99.90;;;;;;6244807;22;20415;-79
2021/11/27 08:13:21;;;;;;;17.63;7.85;;;8.70;99.90;;;;;;6245526;22;19996;-80
2021/11/27 08:15:47;;;;;;;19.42;8.35;;;8.70;99.90;;;;;;6244050;23;20000;-80
2021/11/27 08:18:13;;;;;;;11.30;7.40;;;8.70;99.90;;;;;;6245690;22;20345;-80
2021/11/27 08:20:38;;;;;;;14.23;8.07;;;8.80;99.90;;;;;;6245465;22;20083;-80
2021/11/27 08:23:08;;;;;;;12.15;7.45;;;8.80;99.90;;;;;;6244018;23;20001;-80
2021/11/27 08:25:34;;;;;;;17.90;8.43;;;8.80;99.90;;;;;;6245457;23;20061;-80
2021/11/27 08:28:02;;;;;;;14.82;7.65;;;8.90;99.90;;;;;;6245564;23;20020;-80
2021/11/27 08:30:28;;;;;;;15.75;8.02;;;8.90;99.90;;;;;;6243839;23;20012;-80
2021/11/27 08:32:55;;;;;;;21.45;10.32;;;8.90;99.90;;;;;;6245253;22;20498;-80
2021/11/27 08:35:21;;;;;;;19.08;8.95;;;8.90;99.90;;;;;;6245487;22;20054;-80
2021/11/27 08:37:47;;;;;;;35.38;15.02;;;9.00;99.90;;;;;;6243644;23;20008;-80
2021/11/27 08:40:13;;;;;;;64.50;27.83;;;9.00;99.90;;;;;;6243554;23;20055;-80
2021/11/27 08:42:40;;;;;;;47.78;19.73;;;9.00;99.90;;;;;;6245211;22;20073;-80
2021/11/27 08:45:06;;;;;;;22.27;11.48;;;9.10;99.90;;;;;;6245324;22;19996;-80
2021/11/27 08:47:32;;;;;;;19.13;10.10;;;9.10;99.90;;;;;;6245358;22;20019;-80
2021/11/27 08:50:00;;;;;;;26.42;12.18;;;9.10;99.90;;;;;;6245939;22;20007;-80
2021/11/27 08:52:26;;;;;;;23.50;11.70;;;9.20;99.90;;;;;;6244630;22;20012;-80
2021/11/27 08:54:52;;;;;;;24.88;13.10;;;9.20;99.90;;;;;;6243844;22;20076;-80
2021/11/27 08:57:18;;;;;;;25.30;13.23;;;9.20;99.90;;;;;;6242562;22;20662;-80
2021/11/27 08:59:44;;;;;;;31.92;15.00;;;9.30;99.90;;;;;;6240084;23;20004;-80
2021/11/27 09:02:11;;;;;;;30.30;15.15;;;9.30;99.90;;;;;;6242344;22;20007;-79
2021/11/27 09:04:38;;;;;;;31.45;15.60;;;9.30;99.90;;;;;;6240203;23;20010;-80
2021/11/27 09:07:04;;;;;;;29.45;15.00;;;9.30;99.90;;;;;;6241347;22;19996;-80
2021/11/27 09:09:31;;;;;;;25.92;13.57;;;9.40;99.90;;;;;;6240624;23;20035;-80
2021/11/27 09:11:58;;;;;;;29.15;15.98;;;9.40;99.90;;;;;;6239043;23;20008;-80
2021/11/27 09:14:23;;;;;;;30.95;15.38;;;9.40;99.90;;;;;;6238526;23;20012;-80
2021/11/27 09:16:51;;;;;;;28.15;13.57;;;9.40;99.90;;;;;;6239972;22;20004;-79
2021/11/27 09:19:17;;;;;;;27.02;13.82;;;9.40;99.90;;;;;;6238170;23;20015;-80
2021/11/27 09:21:43;;;;;;;25.48;14.00;;;9.40;99.90;;;;;;6239000;23;20001;-80
2021/11/27 09:24:09;;;;;;;24.38;12.40;;;9.40;99.90;;;;;;6240943;22;20011;-80
2021/11/27 09:26:37;;;;;;;20.45;12.50;;;9.50;99.90;;;;;;6241812;22;20026;-80
2021/11/27 09:29:04;;;;;;;18.23;12.02;;;9.50;99.90;;;;;;6242725;22;20066;-80
2021/11/27 09:31:30;;;;;;;20.35;10.52;;;9.60;99.90;;;;;;6240346;23;20062;-80
2021/11/27 09:33:56;;;;;;;21.45;11.15;;;9.70;99.90;;;;;;6242043;22;20004;-80
2021/11/27 09:36:23;;;;;;;23.13;11.98;;;9.70;99.90;;;;;;6240985;23;20004;-80
2021/11/27 09:38:49;;;;;;;30.58;12.80;;;9.90;99.90;;;;;;6240168;23;20008;-80
2021/11/27 09:41:27;;;;;;;19.65;11.52;;;9.90;99.90;;;;;;6240594;23;20085;-79
2021/11/27 09:43:55;;;;;;;20.38;10.68;;;10.10;99.90;;;;;;6242195;22;20023;-80
2021/11/27 09:46:23;;;;;;;23.50;12.15;;;10.30;99.90;;;;;;6241212;23;20027;-80
2021/11/27 09:48:52;;;;;;;27.60;13.52;;;10.30;99.90;;;;;;6241937;22;20027;-80
2021/11/27 09:51:20;;;;;;;24.05;12.52;;;10.30;99.90;;;;;;6241657;22;20082;-79
2021/11/27 09:53:48;;;;;;;21.20;12.75;;;10.40;99.90;;;;;;6242807;22;19996;-79
2021/11/27 09:56:16;;;;;;;25.73;12.65;;;10.30;99.90;;;;;;6241858;22;20001;-80
2021/11/27 09:58:42;;;;;;;29.02;14.55;;;10.30;99.90;;;;;;6237849;22;20035;-80
2021/11/27 10:01:09;;;;;;;25.13;13.85;;;10.30;99.90;;;;;;6239359;22;20023;-80
2021/11/27 10:03:38;;;;;;;22.50;12.85;;;10.30;99.90;;;;;;6240177;23;20138;-80
2021/11/27 10:06:04;;;;;;;29.10;13.95;;;10.40;99.90;;;;;;6241176;22;19997;-80
2021/11/27 10:08:34;;;;;;;30.20;13.35;;;10.50;99.90;;;;;;6241840;22;19997;-79
2021/11/27 10:11:00;;;;;;;37.72;16.30;;;10.60;99.90;;;;;;6239989;23;20004;-80
2021/11/27 10:13:27;;;;;;;27.48;14.45;;;10.60;99.90;;;;;;6243091;22;20004;-80
2021/11/27 10:15:53;;;;;;;29.70;15.38;;;10.60;99.90;;;;;;6243103;22;19996;-80
2021/11/27 10:18:20;;;;;;;36.13;14.93;;;10.60;99.90;;;;;;6243117;22;20000;-80
2021/11/27 10:20:46;;;;;;;25.70;14.15;;;10.70;99.90;;;;;;6243169;22;20134;-81
2021/11/27 10:23:12;;;;;;;25.52;13.02;;;10.80;99.90;;;;;;6242907;23;20043;-80
2021/11/27 10:25:41;;;;;;;21.33;11.50;;;10.90;99.90;;;;;;6241793;23;20301;-80
2021/11/27 10:28:18;;;;;;;28.67;12.77;;;10.90;99.90;;;;;;6243749;22;20463;-81
2021/11/27 10:30:47;;;;;;;27.58;12.23;;;10.90;99.90;;;;;;6243299;22;20004;-80
2021/11/27 10:33:14;;;;;;;22.77;11.85;;;11.00;99.90;;;;;;6243412;22;20000;-80
2021/11/27 10:36:19;;;;;;;25.48;12.32;;;11.00;99.90;;;;;;6242685;22;20694;-80
2021/11/27 10:38:50;;;;;;;21.15;10.60;;;11.00;99.90;;;;;;6119547;23;20096;-80
2021/11/27 10:41:17;;;;;;;26.30;12.55;;;11.00;99.90;;;;;;6220936;23;20079;-80
2021/11/27 10:44:01;;;;;;;24.30;12.50;;;10.90;99.90;;;;;;6244382;22;20004;-80
2021/11/27 10:46:29;;;;;;;24.92;12.70;;;10.80;99.90;;;;;;6243954;22;20456;-80
2021/11/27 10:48:55;;;;;;;29.85;12.85;;;10.70;99.90;;;;;;6243530;22;20004;-80
2021/11/27 10:51:21;;;;;;;30.60;13.52;;;10.70;99.90;;;;;;6242221;22;20031;-80
2021/11/27 10:54:05;;;;;;;21.30;12.07;;;10.70;99.90;;;;;;6241636;23;20074;-80
2021/11/27 10:56:45;;;;;;;26.98;12.73;;;10.70;99.90;;;;;;6243986;22;20004;-80
2021/11/27 10:59:12;;;;;;;26.70;12.93;;;10.80;99.90;;;;;;6243837;22;20427;-80
2021/11/27 11:01:58;;;;;;;25.75;13.20;;;10.80;99.90;;;;;;6244205;22;20039;-81
2021/11/27 11:04:24;;;;;;;29.25;13.70;;;10.80;99.90;;;;;;6242048;23;20011;-80
2021/11/27 11:06:50;;;;;;;25.25;12.52;;;10.80;99.90;;;;;;6243574;23;20000;-80
2021/11/27 11:09:16;;;;;;;22.02;11.85;;;10.80;99.90;;;;;;6243555;23;20000;-81
2021/11/27 11:11:41;;;;;;;24.52;12.27;;;10.90;99.90;;;;;;6242374;23;20008;-80
2021/11/27 11:14:25;;;;;;;26.42;13.27;;;11.00;99.90;;;;;;6243427;23;20039;-79
2021/11/27 11:16:59;;;;;;;22.63;12.10;;;11.00;99.90;;;;;;6239881;22;20032;-76
2021/11/27 11:19:25;;;;;;;26.70;11.73;;;11.00;99.90;;;;;;6237933;23;20016;-76
2021/11/27 11:22:10;;;;;;;21.55;11.52;;;11.00;99.90;;;;;;6237772;23;20420;-77
2021/11/27 11:24:38;;;;;;;27.25;12.77;;;11.00;99.90;;;;;;6240082;22;20007;-80
2021/11/27 11:27:09;;;;;;;21.02;11.65;;;11.00;99.90;;;;;;6242319;22;20003;-80
2021/11/27 11:29:49;;;;;;;17.85;9.40;;;11.00;99.90;;;;;;6240915;23;20004;-77
2021/11/27 11:32:17;;;;;;;17.83;10.00;;;11.00;99.90;;;;;;6242078;22;20008;-80
2021/11/27 11:34:44;;;;;;;19.38;10.52;;;11.20;99.90;;;;;;6241575;22;20057;-80
2021/11/27 11:37:10;;;;;;;20.15;10.63;;;11.20;99.90;;;;;;6240672;22;20439;-80
2021/11/27 11:39:37;;;;;;;19.38;9.90;;;11.20;99.90;;;;;;6238582;23;20015;-81
2021/11/27 11:42:03;;;;;;;21.45;10.60;;;11.20;99.90;;;;;;6239213;22;20062;-81
2021/11/27 11:44:29;;;;;;;19.70;10.05;;;11.10;99.90;;;;;;6239436;22;20003;-82
2021/11/27 11:46:56;;;;;;;20.98;10.88;;;11.10;99.90;;;;;;6240497;23;20000;-81
2021/11/27 11:49:22;;;;;;;28.38;11.35;;;11.10;99.90;;;;;;6239259;22;20007;-81
2021/11/27 11:51:53;;;;;;;20.38;11.50;;;11.10;99.90;;;;;;6239849;22;20008;-81
2021/11/27 11:54:23;;;;;;;23.48;10.95;;;11.10;99.90;;;;;;6242022;23;20000;-81
2021/11/27 11:57:08;;;;;;;29.35;12.45;;;11.10;99.90;;;;;;6245635;22;20338;-76
2021/11/27 11:59:37;;;;;;;25.00;12.82;;;11.10;99.90;;;;;;6246003;22;20001;-76
2021/11/27 12:02:24;;;;;;;22.35;12.45;;;11.20;99.90;;;;;;6244529;23;20000;-76
2021/11/27 12:05:11;;;;;;;25.38;12.32;;;11.20;99.90;;;;;;6244518;23;20008;-76
2021/11/27 12:07:52;;;;;;;24.52;12.45;;;11.30;99.90;;;;;;6246277;22;20487;-76
2021/11/27 12:10:30;;;;;;;28.05;13.45;;;11.40;99.90;;;;;;6246224;22;20008;-76
2021/11/27 12:13:05;;;;;;;24.90;11.65;;;11.50;99.90;;;;;;6246236;22;20047;-76
2021/11/27 12:15:39;;;;;;;24.42;12.57;;;11.50;99.90;;;;;;6244386;23;20008;-76
2021/11/27 12:18:07;;;;;;;22.73;12.45;;;11.50;99.90;;;;;;6244421;23;20012;-76
2021/11/27 12:20:56;;;;;;;19.80;11.43;;;11.50;99.90;;;;;;6243752;23;20408;-76
2021/11/27 12:23:25;;;;;;;24.77;11.25;;;11.40;99.90;;;;;;6244128;23;20473;-76
2021/11/27 12:26:13;;;;;;;25.02;11.70;;;11.40;99.90;;;;;;6245900;22;20000;-76
2021/11/27 12:28:48;;;;;;;28.65;11.60;;;11.40;99.90;;;;;;6243970;23;20004;-76
2021/11/27 12:31:16;;;;;;;27.35;12.43;;;11.30;99.90;;;;;;6245509;23;20413;-76
2021/11/27 12:34:01;;;;;;;22.75;10.95;;;11.30;99.90;;;;;;6244465;23;20527;-76
2021/11/27 12:36:35;;;;;;;20.88;10.30;;;11.30;99.90;;;;;;6245667;22;20000;-76
2021/11/27 12:39:15;;;;;;;21.45;11.32;;;11.30;99.90;;;;;;6244443;23;20335;-76
2021/11/27 12:41:51;;;;;;;23.90;10.93;;;11.30;99.90;;;;;;6246103;23;20469;-76